createdAt,value
2019-02-07T00:00:55.142Z,-1.82
2019-02-07T00:03:22.998Z,-1.78
2019-02-07T00:05:50.467Z,-1.77
2019-02-07T00:08:18.332Z,-1.78
2019-02-07T00:10:46.213Z,-1.80
2019-02-07T00:13:13.874Z,-1.74
2019-02-07T00:15:41.620Z,-1.75
2019-02-07T00:18:09.046Z,-1.78
2019-02-07T00:20:36.423Z,-1.74
2019-02-07T00:23:04.110Z,-1.76
2019-02-07T00:25:32.595Z,-1.70
2019-02-07T00:27:59.850Z,-1.70
2019-02-07T00:30:27.856Z,-1.69
2019-02-07T00:32:55.506Z,-1.69
2019-02-07T00:35:22.688Z,-1.70
2019-02-07T00:37:50.164Z,-1.67
2019-02-07T00:40:18.322Z,-1.68
2019-02-07T00:42:46.474Z,-1.73
2019-02-07T00:45:14.360Z,-1.68
2019-02-07T00:47:42.126Z,-1.72
2019-02-07T00:50:11.764Z,-1.72
2019-02-07T00:52:39.730Z,-1.73
2019-02-07T00:55:10.196Z,-1.70
2019-02-07T00:57:37.977Z,-1.69
2019-02-07T01:00:10.562Z,-1.64
2019-02-07T01:02:38.436Z,-1.62
2019-02-07T01:05:07.585Z,-1.64
2019-02-07T01:07:35.374Z,-1.54
2019-02-07T01:10:05.061Z,-1.56
2019-02-07T01:12:32.790Z,-1.59
2019-02-07T01:15:02.099Z,-1.59
2019-02-07T01:17:37.243Z,-1.62
2019-02-07T01:20:07.185Z,-1.60
2019-02-07T01:22:34.809Z,-1.60
2019-02-07T01:25:03.149Z,-1.57
2019-02-07T01:27:31.554Z,-1.55
2019-02-07T01:29:59.260Z,-1.53
2019-02-07T01:32:26.654Z,-1.51
2019-02-07T01:34:53.909Z,-1.45
2019-02-07T01:37:21.804Z,-1.39
2019-02-07T01:39:49.161Z,-1.37
2019-02-07T01:42:16.427Z,-1.31
2019-02-07T01:44:44.579Z,-1.26
2019-02-07T01:47:12.739Z,-1.24
2019-02-07T01:49:40.693Z,-1.21
2019-02-07T01:52:08.837Z,-1.16
2019-02-07T01:54:36.367Z,-1.13
2019-02-07T01:57:03.839Z,-1.08
2019-02-07T01:59:31.098Z,-1.10
2019-02-07T02:01:59.114Z,-0.99
2019-02-07T02:04:27.166Z,-1.02
2019-02-07T02:06:54.706Z,-1.04
2019-02-07T02:09:22.058Z,-1.00
2019-02-07T02:11:49.658Z,-1.01
2019-02-07T02:14:17.427Z,-0.99
2019-02-07T02:16:45.199Z,-0.96
2019-02-07T02:19:13.049Z,-0.92
2019-02-07T02:21:40.476Z,-0.87
2019-02-07T02:24:08.841Z,-0.83
2019-02-07T02:26:36.664Z,-0.82
2019-02-07T02:29:04.318Z,-0.78
2019-02-07T02:31:31.875Z,-0.75
2019-02-07T02:33:59.256Z,-0.68
2019-02-07T02:36:27.427Z,-0.65
2019-02-07T02:38:54.882Z,-0.56
2019-02-07T02:41:25.817Z,-0.59
2019-02-07T02:43:53.185Z,-0.48
2019-02-07T02:46:20.928Z,-0.46
2019-02-07T02:48:48.974Z,-0.42
2019-02-07T02:51:16.434Z,-0.40
2019-02-07T02:53:44.291Z,-0.36
2019-02-07T02:56:12.010Z,-0.30
2019-02-07T02:58:39.809Z,-0.20
2019-02-07T03:01:26.945Z,-0.20
2019-02-07T03:04:23.259Z,-0.18
2019-02-07T03:07:20.235Z,-0.12
2019-02-07T03:10:13.271Z,-0.10
2019-02-07T03:12:52.210Z,-0.01
2019-02-07T03:15:49.209Z,0.01
2019-02-07T03:18:30.123Z,0.01
2019-02-07T03:21:23.460Z,0.02
2019-02-07T03:24:12.999Z,0.02
2019-02-07T03:26:55.022Z,0.04
2019-02-07T03:29:41.263Z,0.06
2019-02-07T03:32:31.600Z,0.10
2019-02-07T03:35:33.770Z,0.14
2019-02-07T03:38:19.126Z,0.21
2019-02-07T03:41:07.248Z,0.30
2019-02-07T03:43:55.006Z,0.22
2019-02-07T03:46:42.141Z,0.26
2019-02-07T03:49:29.405Z,0.21
2019-02-07T03:52:28.354Z,0.26
2019-02-07T03:55:10.119Z,0.28
2019-02-07T03:57:59.782Z,0.31
2019-02-07T04:00:47.115Z,0.26
2019-02-07T04:03:30.912Z,0.32
2019-02-07T04:06:18.929Z,0.31
2019-02-07T04:09:08.303Z,0.29
2019-02-07T04:12:03.693Z,0.42
2019-02-07T04:14:45.700Z,0.35
2019-02-07T04:17:34.981Z,0.38
2019-02-07T04:20:22.049Z,0.43
2019-02-07T04:23:09.154Z,0.45
2019-02-07T04:25:48.003Z,0.51
2019-02-07T04:28:40.122Z,0.38
2019-02-07T04:31:26.267Z,0.26
2019-02-07T04:34:22.328Z,0.41
2019-02-07T04:37:21.484Z,0.50
2019-02-07T04:40:07.040Z,0.44
2019-02-07T04:42:56.984Z,0.47
2019-02-07T04:45:42.638Z,0.45
2019-02-07T04:48:30.194Z,0.43
2019-02-07T04:51:09.919Z,0.55
2019-02-07T04:53:59.622Z,0.59
2019-02-07T04:56:45.976Z,0.55
2019-02-07T04:59:23.074Z,0.56
2019-02-07T05:02:01.710Z,0.64
2019-02-07T05:04:55.188Z,0.61
2019-02-07T05:07:34.994Z,0.62
2019-02-07T05:10:23.484Z,0.63
2019-02-07T05:13:13.231Z,0.65
2019-02-07T05:16:06.029Z,0.63
2019-02-07T05:18:49.669Z,0.60
2019-02-07T05:21:37.189Z,0.66
2019-02-07T05:24:23.267Z,0.61
2019-02-07T05:27:10.296Z,0.70
2019-02-07T05:30:15.412Z,0.66
2019-02-07T05:33:05.477Z,0.66
2019-02-07T05:35:49.204Z,0.67
2019-02-07T05:38:29.886Z,0.74
2019-02-07T05:41:15.035Z,0.74
2019-02-07T05:44:11.203Z,0.72
2019-02-07T05:46:56.773Z,0.76
2019-02-07T05:49:35.645Z,0.72
2019-02-07T05:52:20.020Z,0.74
2019-02-07T05:55:07.031Z,0.72
2019-02-07T05:57:52.934Z,0.76
2019-02-07T06:00:32.235Z,0.71
2019-02-07T06:03:24.972Z,0.67
2019-02-07T06:06:16.274Z,0.76
2019-02-07T06:09:06.393Z,0.69
2019-02-07T06:12:12.285Z,0.67
2019-02-07T06:14:59.506Z,0.67
2019-02-07T06:17:49.495Z,0.67
2019-02-07T06:20:48.985Z,0.64
2019-02-07T06:23:41.607Z,0.67
2019-02-07T06:26:18.459Z,0.58
2019-02-07T06:29:08.649Z,0.70
2019-02-07T06:31:49.655Z,0.71
2019-02-07T06:34:41.352Z,0.76
2019-02-07T06:37:31.400Z,0.75
2019-02-07T06:40:17.035Z,0.60
2019-02-07T06:43:04.219Z,0.75
2019-02-07T06:45:41.522Z,0.72
2019-02-07T06:48:27.764Z,0.83
2019-02-07T06:51:14.522Z,0.88
2019-02-07T06:54:07.542Z,0.89
2019-02-07T06:56:52.930Z,0.90
2019-02-07T06:59:43.132Z,0.90
2019-02-07T07:02:49.110Z,1.05
2019-02-07T07:05:34.518Z,1.04
2019-02-07T07:08:10.474Z,1.11
2019-02-07T07:11:00.757Z,1.11
2019-02-07T07:13:50.389Z,1.19
2019-02-07T07:16:36.596Z,1.21
2019-02-07T07:19:26.723Z,1.35
2019-02-07T07:22:25.933Z,1.36
2019-02-07T07:25:14.427Z,1.44
2019-02-07T07:28:10.816Z,1.43
2019-02-07T07:30:57.142Z,1.45
2019-02-07T07:33:35.811Z,1.47
2019-02-07T07:36:14.039Z,1.60
2019-02-07T07:39:00.635Z,1.69
2019-02-07T07:41:59.922Z,1.59
2019-02-07T07:44:36.367Z,1.51
2019-02-07T07:47:36.192Z,1.52
2019-02-07T07:50:36.820Z,1.67
2019-02-07T07:53:36.442Z,1.76
2019-02-07T07:56:29.592Z,1.80
2019-02-07T07:59:23.661Z,1.85
2019-02-07T08:02:14.397Z,1.75
2019-02-07T08:05:05.158Z,1.91
2019-02-07T08:07:57.367Z,1.97
2019-02-07T08:10:50.852Z,1.87
2019-02-07T08:13:37.160Z,1.92
2019-02-07T08:16:36.702Z,1.99
2019-02-07T08:19:25.171Z,1.96
2019-02-07T08:22:13.220Z,1.97
2019-02-07T08:25:18.949Z,2.06
2019-02-07T08:28:21.209Z,2.06
2019-02-07T08:31:11.094Z,1.87
2019-02-07T08:34:04.620Z,1.97
2019-02-07T08:36:59.354Z,2.02
2019-02-07T08:39:41.513Z,2.05
2019-02-07T08:42:31.506Z,2.05
2019-02-07T08:45:24.428Z,2.03
2019-02-07T08:48:17.201Z,2.01
2019-02-07T08:50:58.767Z,2.11
2019-02-07T08:53:43.020Z,2.13
2019-02-07T08:56:28.626Z,2.19
2019-02-07T08:59:15.069Z,2.20
2019-02-07T09:02:05.974Z,2.22
2019-02-07T09:04:51.670Z,2.28
2019-02-07T09:07:44.245Z,2.31
2019-02-07T09:10:27.622Z,2.27
2019-02-07T09:13:12.375Z,2.32
2019-02-07T09:16:08.166Z,2.43
2019-02-07T09:19:10.201Z,2.51
2019-02-07T09:21:59.977Z,2.52
2019-02-07T09:24:47.970Z,2.51
2019-02-07T09:27:45.475Z,2.55
2019-02-07T09:30:34.813Z,2.74
2019-02-07T09:33:23.622Z,2.83
2019-02-07T09:36:19.971Z,2.84
2019-02-07T09:39:13.988Z,2.85
2019-02-07T09:41:52.530Z,2.90
2019-02-07T09:44:38.199Z,2.86
2019-02-07T09:47:16.712Z,2.85
2019-02-07T09:50:03.748Z,2.85
2019-02-07T09:52:48.657Z,2.96
2019-02-07T09:55:39.188Z,3.00
2019-02-07T09:58:36.914Z,3.00
2019-02-07T10:01:29.925Z,3.07
2019-02-07T10:04:12.386Z,3.12
2019-02-07T10:06:59.508Z,3.22
2019-02-07T10:09:55.415Z,3.17
2019-02-07T10:12:39.373Z,3.19
2019-02-07T10:15:21.015Z,3.21
2019-02-07T10:18:20.832Z,3.28
2019-02-07T10:20:59.936Z,3.31
2019-02-07T10:23:55.985Z,3.34
2019-02-07T10:26:46.235Z,3.44
2019-02-07T10:29:32.371Z,3.48
2019-02-07T10:32:22.369Z,3.45
2019-02-07T10:35:22.440Z,3.41
2019-02-07T10:37:51.111Z,3.51
2019-02-07T10:40:44.127Z,3.61
2019-02-07T10:43:34.543Z,3.54
2019-02-07T10:46:10.510Z,3.58
2019-02-07T10:48:57.530Z,3.52
2019-02-07T10:51:56.243Z,3.49
2019-02-07T10:54:42.559Z,3.59
2019-02-07T10:57:41.724Z,3.59
2019-02-07T11:00:33.976Z,3.68
2019-02-07T11:03:23.963Z,3.71
2019-02-07T11:06:09.567Z,3.73
2019-02-07T11:09:17.730Z,3.78
2019-02-07T11:12:03.999Z,3.80
2019-02-07T11:14:51.366Z,3.74
2019-02-07T11:17:30.565Z,3.72
2019-02-07T11:20:14.511Z,3.88
2019-02-07T11:23:04.315Z,3.86
2019-02-07T11:25:51.723Z,3.83
2019-02-07T11:28:29.822Z,3.86
2019-02-07T11:31:10.261Z,4.01
2019-02-07T11:33:57.810Z,4.01
2019-02-07T11:36:36.702Z,4.04
2019-02-07T11:39:33.044Z,4.02
2019-02-07T11:42:19.881Z,4.02
2019-02-07T11:45:13.573Z,4.07
2019-02-07T11:48:02.667Z,4.14
2019-02-07T11:50:55.942Z,4.12
2019-02-07T11:53:29.729Z,4.10
2019-02-07T11:56:19.938Z,4.14
2019-02-07T11:59:07.510Z,4.15
2019-02-07T12:01:53.416Z,4.17
2019-02-07T12:04:34.699Z,4.18
2019-02-07T12:07:34.081Z,4.26
2019-02-07T12:10:30.903Z,4.30
2019-02-07T12:13:18.424Z,4.30
2019-02-07T12:16:08.506Z,4.41
2019-02-07T12:19:03.707Z,4.39
2019-02-07T12:21:37.906Z,4.48
2019-02-07T12:24:27.804Z,4.42
2019-02-07T12:27:19.287Z,4.29
2019-02-07T12:29:59.337Z,4.36
2019-02-07T12:32:46.467Z,4.39
2019-02-07T12:35:42.374Z,4.41
2019-02-07T12:38:23.534Z,4.42
2019-02-07T12:40:59.454Z,4.43
2019-02-07T12:43:45.503Z,4.45
2019-02-07T12:46:44.939Z,4.49
2019-02-07T12:49:29.263Z,4.49
2019-02-07T12:52:15.031Z,4.53
2019-02-07T12:55:05.902Z,4.56
2019-02-07T12:57:49.002Z,4.54
2019-02-07T13:00:55.484Z,4.59
2019-02-07T13:03:45.155Z,4.59
2019-02-07T13:06:30.587Z,4.61
2019-02-07T13:09:17.933Z,4.66
2019-02-07T13:12:17.171Z,4.71
2019-02-07T13:14:54.825Z,4.76
2019-02-07T13:17:43.963Z,4.81
2019-02-07T13:20:31.132Z,4.85
2019-02-07T13:23:30.302Z,4.89
2019-02-07T13:26:03.839Z,4.92
2019-02-07T13:29:09.745Z,4.93
2019-02-07T13:31:50.249Z,5.01
2019-02-07T13:34:31.050Z,5.00
2019-02-07T13:37:12.007Z,5.03
2019-02-07T13:40:02.279Z,5.00
2019-02-07T13:42:44.294Z,5.07
2019-02-07T13:45:31.979Z,5.00
2019-02-07T13:48:27.847Z,5.04
2019-02-07T13:51:20.062Z,5.05
2019-02-07T13:54:09.658Z,5.05
2019-02-07T13:56:55.633Z,5.07
2019-02-07T13:59:47.882Z,5.08
2019-02-07T14:02:48.045Z,5.11
2019-02-07T14:05:40.842Z,5.11
2019-02-07T14:08:38.458Z,5.19
2019-02-07T14:11:24.906Z,5.23
2019-02-07T14:14:02.435Z,5.31
2019-02-07T14:16:45.657Z,5.37
2019-02-07T14:19:44.853Z,5.33
2019-02-07T14:22:26.341Z,5.38
2019-02-07T14:25:05.777Z,5.46
2019-02-07T14:28:01.455Z,5.38
2019-02-07T14:30:47.022Z,5.36
2019-02-07T14:33:52.663Z,5.25
2019-02-07T14:36:31.499Z,5.33
2019-02-07T14:39:23.778Z,5.33
2019-02-07T14:42:19.575Z,5.31
2019-02-07T14:44:57.365Z,5.41
2019-02-07T14:47:24.779Z,5.38
2019-02-07T14:49:52.410Z,5.49
2019-02-07T14:52:20.721Z,5.39
2019-02-07T14:54:48.357Z,5.31
2019-02-07T14:57:16.590Z,5.36
2019-02-07T14:59:44.714Z,5.36
2019-02-07T15:02:12.577Z,5.48
2019-02-07T15:04:40.098Z,5.48
2019-02-07T15:07:07.689Z,5.51
2019-02-07T15:09:35.916Z,5.52
2019-02-07T15:12:03.979Z,5.46
2019-02-07T15:14:32.131Z,5.45
2019-02-07T15:17:00.294Z,5.47
2019-02-07T15:19:28.197Z,5.39
2019-02-07T15:21:55.559Z,5.42
2019-02-07T15:24:23.381Z,5.49
2019-02-07T15:26:51.496Z,5.55
2019-02-07T15:29:19.502Z,5.51
2019-02-07T15:31:46.955Z,5.51
2019-02-07T15:34:14.623Z,5.47
2019-02-07T15:36:45.544Z,5.50
2019-02-07T15:39:15.459Z,5.49
2019-02-07T15:41:43.314Z,5.44
2019-02-07T15:44:11.330Z,5.40
2019-02-07T15:46:39.715Z,5.42
2019-02-07T15:49:07.398Z,5.38
2019-02-07T15:51:35.191Z,5.45
2019-02-07T15:54:03.569Z,5.45
2019-02-07T15:56:31.299Z,5.45
2019-02-07T15:59:30.538Z,5.47
2019-02-07T16:02:11.511Z,5.45
2019-02-07T16:04:42.162Z,5.50
2019-02-07T16:07:10.274Z,5.48
2019-02-07T16:09:38.205Z,5.48
2019-02-07T16:12:06.004Z,5.43
2019-02-07T16:14:33.489Z,5.47
2019-02-07T16:17:01.370Z,5.29
2019-02-07T16:19:30.023Z,5.29
2019-02-07T16:21:57.379Z,5.22
2019-02-07T16:24:25.210Z,5.16
2019-02-07T16:26:52.615Z,5.11
2019-02-07T16:29:19.826Z,5.05
2019-02-07T16:31:48.024Z,4.91
2019-02-07T16:34:18.708Z,4.81
2019-02-07T16:36:46.142Z,4.71
2019-02-07T16:39:14.607Z,4.54
2019-02-07T16:41:42.326Z,4.56
2019-02-07T16:44:09.894Z,4.45
2019-02-07T16:46:37.412Z,4.33
2019-02-07T16:49:05.177Z,4.30
2019-02-07T16:51:32.983Z,4.17
2019-02-07T16:54:00.963Z,4.23
2019-02-07T16:56:28.829Z,4.16
2019-02-07T16:58:56.673Z,4.06
2019-02-07T17:01:24.637Z,4.01
2019-02-07T17:03:52.924Z,3.92
2019-02-07T17:06:21.366Z,3.81
2019-02-07T17:08:49.077Z,3.75
2019-02-07T17:11:16.749Z,3.77
2019-02-07T17:13:47.962Z,3.79
2019-02-07T17:16:16.210Z,3.83
2019-02-07T17:18:43.485Z,3.64
2019-02-07T17:21:13.047Z,3.66
2019-02-07T17:23:40.813Z,3.64
2019-02-07T17:26:08.994Z,3.58
2019-02-07T17:28:36.458Z,3.72
2019-02-07T17:31:05.088Z,3.55
2019-02-07T17:33:32.754Z,3.45
2019-02-07T17:36:00.226Z,3.40
2019-02-07T17:38:28.441Z,3.27
2019-02-07T17:40:56.167Z,3.03
2019-02-07T17:43:23.547Z,2.88
2019-02-07T17:45:53.098Z,2.87
2019-02-07T17:48:20.916Z,2.74
2019-02-07T17:50:48.695Z,2.70
2019-02-07T17:53:16.733Z,2.68
2019-02-07T17:55:44.373Z,2.70
2019-02-07T17:58:11.851Z,2.53
2019-02-07T18:00:56.759Z,2.56
2019-02-07T18:03:30.822Z,2.51
2019-02-07T18:05:58.268Z,2.51
2019-02-07T18:08:26.363Z,2.58
2019-02-07T18:10:54.685Z,2.70
2019-02-07T18:13:23.130Z,2.59
2019-02-07T18:15:50.439Z,2.61
2019-02-07T18:18:18.572Z,2.56
2019-02-07T18:20:46.704Z,2.59
2019-02-07T18:23:14.668Z,2.58
2019-02-07T18:25:42.545Z,2.51
2019-02-07T18:28:10.730Z,2.57
2019-02-07T18:30:38.507Z,2.60
2019-02-07T18:33:06.118Z,2.66
2019-02-07T18:35:34.399Z,2.74
2019-02-07T18:38:02.086Z,2.74
2019-02-07T18:40:29.607Z,2.74
2019-02-07T18:42:57.286Z,2.73
2019-02-07T18:45:24.970Z,2.77
2019-02-07T18:47:52.721Z,2.88
2019-02-07T18:50:27.294Z,2.90
2019-02-07T18:52:55.148Z,2.96
2019-02-07T18:55:22.951Z,3.01
2019-02-07T18:57:50.838Z,3.12
2019-02-07T19:00:22.544Z,3.07
2019-02-07T19:02:50.714Z,3.16
2019-02-07T19:05:23.273Z,3.18
2019-02-07T19:07:52.253Z,3.25
2019-02-07T19:10:20.977Z,3.28
2019-02-07T19:12:49.066Z,3.23
2019-02-07T19:15:39.120Z,3.33
2019-02-07T19:18:07.341Z,3.40
2019-02-07T19:20:34.856Z,3.46
2019-02-07T19:23:03.738Z,3.53
2019-02-07T19:25:32.208Z,3.63
2019-02-07T19:28:00.137Z,3.70
2019-02-07T19:30:29.759Z,3.79
2019-02-07T19:32:58.089Z,3.77
2019-02-07T19:35:25.909Z,3.82
2019-02-07T19:37:53.939Z,3.88
2019-02-07T19:40:21.526Z,3.90
2019-02-07T19:42:49.194Z,3.82
2019-02-07T19:45:17.593Z,3.79
2019-02-07T19:47:45.731Z,3.74
2019-02-07T19:50:19.895Z,3.70
2019-02-07T19:52:48.215Z,3.74
2019-02-07T19:55:18.847Z,3.67
2019-02-07T19:57:46.633Z,3.64
2019-02-07T20:00:20.877Z,3.62
2019-02-07T20:02:49.195Z,3.59
2019-02-07T20:05:16.896Z,3.62
2019-02-07T20:07:44.563Z,3.68
2019-02-07T20:10:15.895Z,3.65
2019-02-07T20:12:44.415Z,3.58
2019-02-07T20:15:18.863Z,3.57
2019-02-07T20:17:46.793Z,3.63
2019-02-07T20:20:14.940Z,3.66
2019-02-07T20:22:43.229Z,3.65
2019-02-07T20:25:12.407Z,3.62
2019-02-07T20:27:40.764Z,3.51
2019-02-07T20:30:24.217Z,3.56
2019-02-07T20:32:52.106Z,3.48
2019-02-07T20:35:21.541Z,3.36
2019-02-07T20:37:49.681Z,3.39
2019-02-07T20:40:19.732Z,3.36
2019-02-07T20:42:47.415Z,3.41
2019-02-07T20:45:15.450Z,3.34
2019-02-07T20:47:43.128Z,3.30
2019-02-07T20:50:14.865Z,3.31
2019-02-07T20:52:42.381Z,3.30
2019-02-07T20:55:10.548Z,3.20
2019-02-07T20:57:38.228Z,3.24
2019-02-07T21:00:12.073Z,3.27
2019-02-07T21:02:39.831Z,3.20
2019-02-07T21:05:09.275Z,3.22
2019-02-07T21:07:37.359Z,3.26
2019-02-07T21:10:06.545Z,3.22
2019-02-07T21:12:34.103Z,3.27
2019-02-07T21:15:01.622Z,3.29
2019-02-07T21:17:29.667Z,3.28
2019-02-07T21:19:56.833Z,3.32
2019-02-07T21:22:24.789Z,3.39
2019-02-07T21:24:52.541Z,3.40
2019-02-07T21:27:20.227Z,3.42
2019-02-07T21:29:47.758Z,3.39
2019-02-07T21:32:15.205Z,3.35
2019-02-07T21:34:42.802Z,3.36
2019-02-07T21:37:10.465Z,3.33
2019-02-07T21:39:38.038Z,3.34
2019-02-07T21:42:06.190Z,3.37
2019-02-07T21:44:33.842Z,3.39
2019-02-07T21:47:01.713Z,3.42
2019-02-07T21:49:29.482Z,3.43
2019-02-07T21:51:56.922Z,3.49
2019-02-07T21:54:24.655Z,3.56
2019-02-07T21:56:52.036Z,3.50
2019-02-07T21:59:19.875Z,3.54
2019-02-07T22:01:47.473Z,3.58
2019-02-07T22:04:15.245Z,3.60
2019-02-07T22:06:42.779Z,3.61
2019-02-07T22:09:12.857Z,3.65
2019-02-07T22:11:40.477Z,3.67
2019-02-07T22:14:08.658Z,3.70
2019-02-07T22:16:36.729Z,3.80
2019-02-07T22:19:04.240Z,3.84
2019-02-07T22:21:31.788Z,3.90
2019-02-07T22:23:59.614Z,4.00
2019-02-07T22:26:27.486Z,4.06
2019-02-07T22:28:55.204Z,4.16
2019-02-07T22:31:22.776Z,4.20
2019-02-07T22:33:50.794Z,4.15
2019-02-07T22:36:22.262Z,4.14
2019-02-07T22:38:50.062Z,4.13
2019-02-07T22:41:17.490Z,4.06
2019-02-07T22:43:45.442Z,4.05
2019-02-07T22:46:13.337Z,3.93
2019-02-07T22:48:40.880Z,3.96
2019-02-07T22:51:09.025Z,3.93
2019-02-07T22:53:36.991Z,3.95
2019-02-07T22:56:04.708Z,3.86
2019-02-07T22:58:32.422Z,3.80
2019-02-07T23:01:24.938Z,3.84
2019-02-07T23:04:05.489Z,3.90
2019-02-07T23:06:32.749Z,3.91
2019-02-07T23:09:00.220Z,3.97
2019-02-07T23:11:27.870Z,4.00
2019-02-07T23:13:55.720Z,4.01
2019-02-07T23:16:23.493Z,4.04
2019-02-07T23:18:54.977Z,4.07
2019-02-07T23:21:22.713Z,4.04
2019-02-07T23:23:50.925Z,4.01
2019-02-07T23:26:18.938Z,3.98
2019-02-07T23:28:46.618Z,3.94
2019-02-07T23:31:14.321Z,3.95
2019-02-07T23:33:42.171Z,3.98
2019-02-07T23:36:10.708Z,3.95
2019-02-07T23:38:38.359Z,3.95
2019-02-07T23:41:07.594Z,3.95
2019-02-07T23:43:35.334Z,3.93
2019-02-07T23:46:04.781Z,3.90
2019-02-07T23:48:32.556Z,3.97
2019-02-07T23:51:01.122Z,3.94
2019-02-07T23:53:28.459Z,3.90
2019-02-07T23:55:55.953Z,3.92
2019-02-07T23:58:23.763Z,3.93
